createdAt,value
2023-04-28T00:00:21.209Z,95907.63
2023-04-28T00:02:49.152Z,95893.69
2023-04-28T00:05:16.558Z,95892.59
2023-04-28T00:07:43.928Z,95879.22
2023-04-28T00:10:11.205Z,95863.44
2023-04-28T00:12:38.306Z,95852.25
2023-04-28T00:15:05.769Z,95849.81
2023-04-28T00:17:33.135Z,95835.91
2023-04-28T00:20:00.190Z,95836.69
2023-04-28T00:22:27.279Z,95838.03
2023-04-28T00:24:54.368Z,95826.28
2023-04-28T00:27:21.507Z,95796.59
2023-04-28T00:29:48.759Z,95785.59
2023-04-28T00:32:16.019Z,95761.47
2023-04-28T00:34:43.062Z,95749.41
2023-04-28T00:37:10.170Z,95743.53
2023-04-28T00:39:37.628Z,95733.59
2023-04-28T00:42:04.818Z,95712.19
2023-04-28T00:44:32.060Z,95695.88
2023-04-28T00:46:59.730Z,95684.94
2023-04-28T00:49:26.980Z,95663.78
2023-04-28T00:51:54.068Z,95652.25
2023-04-28T00:54:21.618Z,95622.81
2023-04-28T00:56:48.828Z,95593.63
2023-04-28T00:59:16.333Z,95669.34
2023-04-28T01:01:43.876Z,95954.53
2023-04-28T01:04:11.497Z,96091.03
2023-04-28T01:06:41.715Z,96047.75
2023-04-28T01:09:08.789Z,95630.50
2023-04-28T01:11:37.529Z,95412.50
2023-04-28T01:14:10.237Z,95360.63
2023-04-28T01:16:40.787Z,95358.50
2023-04-28T01:19:08.435Z,95338.72
2023-04-28T01:21:37.942Z,95388.47
2023-04-28T01:24:15.983Z,95472.72
2023-04-28T01:26:44.716Z,95544.66
2023-04-28T01:29:11.900Z,95641.19
2023-04-28T01:31:39.112Z,95737.03
2023-04-28T01:34:06.261Z,95790.56
2023-04-28T01:36:36.658Z,95821.13
2023-04-28T01:39:04.896Z,95832.06
2023-04-28T01:41:34.579Z,95859.84
2023-04-28T01:44:01.841Z,95921.50
2023-04-28T01:46:29.003Z,95959.00
2023-04-28T01:48:56.293Z,95961.66
2023-04-28T01:51:23.392Z,95998.88
2023-04-28T01:53:50.899Z,96022.78
2023-04-28T01:56:18.012Z,96027.31
2023-04-28T01:58:45.132Z,96058.31
2023-04-28T02:01:13.338Z,96081.34
2023-04-28T02:03:40.941Z,96113.09
2023-04-28T02:06:08.098Z,96157.41
2023-04-28T02:08:36.141Z,96232.31
2023-04-28T02:11:04.207Z,96242.34
2023-04-28T02:13:31.434Z,96263.19
2023-04-28T02:16:02.437Z,96281.56
2023-04-28T02:18:29.880Z,96313.84
2023-04-28T02:21:08.347Z,96348.81
2023-04-28T02:23:35.694Z,96343.31
2023-04-28T02:26:05.678Z,96330.16
2023-04-28T02:28:32.963Z,96339.81
2023-04-28T02:31:03.884Z,96330.72
2023-04-28T02:33:31.160Z,96336.63
2023-04-28T02:36:02.069Z,96315.50
2023-04-28T02:38:29.143Z,96342.88
2023-04-28T02:41:06.527Z,96374.47
2023-04-28T02:43:33.793Z,96350.97
2023-04-28T02:46:02.217Z,96358.94
2023-04-28T02:48:29.345Z,96371.72
2023-04-28T02:50:56.383Z,96396.41
2023-04-28T02:53:23.480Z,96432.97
2023-04-28T02:55:50.930Z,96441.09
2023-04-28T02:58:18.483Z,96448.88
2023-04-28T03:00:47.089Z,96456.56
2023-04-28T03:03:14.937Z,96448.06
2023-04-28T03:05:42.419Z,96445.88
2023-04-28T03:08:09.453Z,96451.44
2023-04-28T03:10:36.613Z,96452.63
2023-04-28T03:13:06.382Z,96462.19
2023-04-28T03:15:33.501Z,96469.34
2023-04-28T03:18:01.212Z,96472.50
2023-04-28T03:20:29.284Z,96484.72
2023-04-28T03:22:56.520Z,96510.75
2023-04-28T03:25:23.759Z,96498.19
2023-04-28T03:27:51.872Z,96506.22
2023-04-28T03:30:19.810Z,96503.31
2023-04-28T03:32:47.157Z,96504.47
2023-04-28T03:35:15.097Z,96478.56
2023-04-28T03:37:43.224Z,96478.91
2023-04-28T03:40:10.693Z,96519.16
2023-04-28T03:42:54.964Z,96533.44
2023-04-28T03:45:32.557Z,96533.69
2023-04-28T03:47:59.734Z,96544.97
2023-04-28T03:50:26.936Z,96564.38
2023-04-28T03:52:55.151Z,96565.53
2023-04-28T03:55:22.819Z,96575.44
2023-04-28T03:57:51.820Z,96573.56
2023-04-28T04:00:19.266Z,96577.28
2023-04-28T04:02:48.546Z,96586.13
2023-04-28T04:05:16.570Z,96602.63
2023-04-28T04:07:43.900Z,96600.19
2023-04-28T04:10:11.242Z,96595.31
2023-04-28T04:12:41.214Z,96624.25
2023-04-28T04:15:08.803Z,96627.38
2023-04-28T04:17:36.325Z,96600.41
2023-04-28T04:20:04.344Z,96581.09
2023-04-28T04:22:31.430Z,96579.47
2023-04-28T04:24:58.529Z,96562.97
2023-04-28T04:27:26.133Z,96546.81
2023-04-28T04:29:53.247Z,96540.16
2023-04-28T04:32:20.918Z,96537.75
2023-04-28T04:34:48.079Z,96555.41
2023-04-28T04:37:15.225Z,96587.75
2023-04-28T04:39:51.731Z,96596.81
2023-04-28T04:42:25.487Z,96609.47
2023-04-28T04:45:15.478Z,96624.25
2023-04-28T04:47:43.056Z,96642.41
2023-04-28T04:50:11.049Z,96680.31
2023-04-28T04:52:38.449Z,96736.72
2023-04-28T04:55:06.033Z,96801.94
2023-04-28T04:57:33.672Z,96845.47
2023-04-28T05:00:23.384Z,96871.63
2023-04-28T05:02:50.777Z,96923.03
2023-04-28T05:05:21.937Z,96950.81
2023-04-28T05:08:05.993Z,97018.97
2023-04-28T05:10:33.327Z,97291.00
2023-04-28T05:13:02.286Z,97326.78
2023-04-28T05:15:29.439Z,97358.06
2023-04-28T05:18:17.125Z,97342.19
2023-04-28T05:20:44.349Z,97385.63
2023-04-28T05:23:12.723Z,97446.97
2023-04-28T05:25:39.921Z,97484.44
2023-04-28T05:28:09.163Z,97520.63
2023-04-28T05:30:36.289Z,97580.31
2023-04-28T05:33:03.990Z,97596.34
2023-04-28T05:35:31.671Z,97605.63
2023-04-28T05:37:59.817Z,97617.97
2023-04-28T05:40:27.553Z,97621.28
2023-04-28T05:42:55.691Z,97621.06
2023-04-28T05:45:22.844Z,97615.72
2023-04-28T05:47:50.218Z,97635.47
2023-04-28T05:50:17.411Z,97643.31
2023-04-28T05:52:44.721Z,97665.09
2023-04-28T05:55:12.194Z,97676.22
2023-04-28T05:57:49.771Z,97689.19
2023-04-28T06:00:21.260Z,97715.75
2023-04-28T06:02:48.851Z,97741.03
2023-04-28T06:05:16.677Z,97767.41
2023-04-28T06:07:44.608Z,97818.25
2023-04-28T06:10:11.970Z,97860.25
2023-04-28T06:12:39.506Z,97931.06
2023-04-28T06:15:06.997Z,97960.94
2023-04-28T06:17:34.458Z,98027.06
2023-04-28T06:20:01.730Z,98112.50
2023-04-28T06:22:28.857Z,98182.47
2023-04-28T06:24:56.078Z,98257.59
2023-04-28T06:27:32.877Z,98330.16
2023-04-28T06:29:59.973Z,98382.09
2023-04-28T06:32:27.156Z,98416.72
2023-04-28T06:34:55.044Z,98466.50
2023-04-28T06:37:23.904Z,98529.44
2023-04-28T06:39:50.955Z,98613.44
2023-04-28T06:42:19.143Z,98677.88
2023-04-28T06:44:53.586Z,98738.91
2023-04-28T06:47:20.967Z,98768.09
2023-04-28T06:49:50.130Z,98818.97
2023-04-28T06:52:17.191Z,98876.22
2023-04-28T06:54:44.319Z,98927.22
2023-04-28T06:57:11.489Z,98966.38
2023-04-28T06:59:38.537Z,98994.50
2023-04-28T07:02:05.662Z,99026.72
2023-04-28T07:04:32.795Z,99067.84
2023-04-28T07:06:59.889Z,99113.19
2023-04-28T07:09:26.946Z,99126.56
2023-04-28T07:11:54.484Z,99148.13
2023-04-28T07:14:21.803Z,99147.50
2023-04-28T07:16:48.901Z,99136.66
2023-04-28T07:19:16.341Z,99358.72
2023-04-28T07:21:43.401Z,99446.06
2023-04-28T07:24:10.688Z,99480.72
2023-04-28T07:26:37.853Z,99509.34
2023-04-28T07:29:04.914Z,99721.56
2023-04-28T07:31:32.032Z,99792.88
2023-04-28T07:33:59.047Z,99912.97
2023-04-28T07:36:26.906Z,99953.13
2023-04-28T07:38:54.042Z,99998.66
2023-04-28T07:41:21.203Z,100051.69
2023-04-28T07:43:48.354Z,100089.56
2023-04-28T07:46:15.653Z,100100.53
2023-04-28T07:48:42.797Z,100102.59
2023-04-28T07:51:09.898Z,100108.28
2023-04-28T07:53:36.970Z,100121.75
2023-04-28T07:56:04.197Z,100143.56
2023-04-28T07:58:31.498Z,100158.91
2023-04-28T08:00:58.616Z,100179.53
2023-04-28T08:03:25.885Z,100205.50
2023-04-28T08:05:53.446Z,100226.72
2023-04-28T08:08:20.606Z,100249.16
2023-04-28T08:10:48.156Z,100284.38
2023-04-28T08:13:16.697Z,100303.13
2023-04-28T08:15:43.770Z,100297.22
2023-04-28T08:18:11.183Z,100312.28
2023-04-28T08:20:38.299Z,100325.50
2023-04-28T08:23:05.542Z,100334.94
2023-04-28T08:25:32.861Z,100315.88
2023-04-28T08:28:00.146Z,100304.19
2023-04-28T08:30:27.283Z,100304.88
2023-04-28T08:32:54.509Z,100327.47
2023-04-28T08:35:21.716Z,100313.59
2023-04-28T08:37:49.660Z,100311.63
2023-04-28T08:40:16.831Z,100310.53
2023-04-28T08:42:45.884Z,100314.59
2023-04-28T08:45:14.016Z,100315.56
2023-04-28T08:47:48.174Z,100319.81
2023-04-28T08:50:15.935Z,100315.53
2023-04-28T08:52:43.543Z,100314.06
2023-04-28T08:55:12.697Z,100312.38
2023-04-28T08:57:43.092Z,100313.31
2023-04-28T09:00:10.565Z,100323.63
2023-04-28T09:02:38.565Z,100346.88
2023-04-28T09:05:09.334Z,100352.47
2023-04-28T09:07:36.841Z,100345.72
2023-04-28T09:10:21.305Z,100341.25
2023-04-28T09:12:50.617Z,100352.69
2023-04-28T09:15:27.538Z,100397.94
2023-04-28T09:17:55.009Z,100410.34
2023-04-28T09:20:23.408Z,100441.09
2023-04-28T09:22:51.160Z,100461.97
2023-04-28T09:25:18.870Z,100483.53
2023-04-28T09:27:46.234Z,100497.78
2023-04-28T09:30:13.615Z,100507.50
2023-04-28T09:32:40.822Z,100515.13
2023-04-28T09:35:08.199Z,100552.28
2023-04-28T09:37:35.604Z,100571.22
2023-04-28T09:40:09.846Z,100577.28
2023-04-28T09:42:41.198Z,100593.66
2023-04-28T09:45:08.531Z,100624.31
2023-04-28T09:47:37.391Z,100644.78
2023-04-28T09:50:06.723Z,100650.28
2023-04-28T09:52:35.005Z,100661.00
2023-04-28T09:55:03.658Z,100664.28
2023-04-28T09:57:34.363Z,100691.53
2023-04-28T10:00:02.265Z,100704.81
2023-04-28T10:05:09.683Z,100733.91
2023-04-28T10:07:37.657Z,100743.91
2023-04-28T10:10:05.560Z,100772.59
2023-04-28T10:12:33.843Z,100769.06
2023-04-28T10:15:01.858Z,100799.00
2023-04-28T10:17:29.719Z,100805.81
2023-04-28T10:19:57.515Z,100815.44
2023-04-28T10:22:39.794Z,100825.19
2023-04-28T10:25:12.926Z,100830.69
2023-04-28T10:27:41.864Z,100864.75
2023-04-28T10:32:46.191Z,100888.34
2023-04-28T10:35:25.609Z,100912.41
2023-04-28T10:38:12.261Z,100927.34
2023-04-28T10:40:39.641Z,100944.47
2023-04-28T10:43:07.731Z,100997.66
2023-04-28T10:45:56.091Z,101017.03
2023-04-28T10:48:44.646Z,101029.06
2023-04-28T10:51:13.067Z,101054.00
2023-04-28T10:53:47.593Z,101096.72
2023-04-28T10:56:18.475Z,101120.78
2023-04-28T10:58:46.523Z,101136.63
2023-04-28T11:01:19.927Z,101154.59
2023-04-28T11:03:47.522Z,101177.66
2023-04-28T11:06:28.358Z,101225.81
2023-04-28T11:08:57.709Z,101247.97
2023-04-28T11:11:28.600Z,100157.06
2023-04-28T11:14:16.028Z,100154.88
2023-04-28T11:16:54.065Z,100159.75
2023-04-28T11:19:25.611Z,100172.88
2023-04-28T11:21:56.552Z,100207.53
2023-04-28T11:24:27.440Z,100214.41
2023-04-28T11:26:55.002Z,100232.41
2023-04-28T11:29:35.946Z,100257.94
2023-04-28T11:32:07.499Z,100255.97
2023-04-28T11:34:35.136Z,100289.63
2023-04-28T11:37:02.888Z,100292.47
2023-04-28T11:39:31.006Z,100298.66
2023-04-28T11:41:59.175Z,100320.03
2023-04-28T11:44:27.494Z,100340.44
2023-04-28T11:46:56.338Z,100355.63
2023-04-28T11:49:29.089Z,100368.53
2023-04-28T11:51:56.776Z,100381.72
2023-04-28T11:54:25.775Z,100388.66
2023-04-28T11:56:53.607Z,100394.22
2023-04-28T12:02:07.390Z,100408.59
2023-04-28T12:04:36.505Z,100410.75
2023-04-28T12:07:05.096Z,100414.00
2023-04-28T12:09:32.604Z,100413.63
2023-04-28T12:12:02.827Z,100413.63
2023-04-28T12:14:31.944Z,100425.44
2023-04-28T12:16:59.063Z,100436.94
2023-04-28T12:19:26.222Z,100437.63
2023-04-28T12:22:01.041Z,100446.34
2023-04-28T12:24:28.693Z,100412.00
2023-04-28T12:27:13.748Z,100393.13
2023-04-28T12:29:41.751Z,100368.88
2023-04-28T12:32:10.900Z,100398.38
2023-04-28T12:34:39.837Z,100411.50
2023-04-28T12:37:07.382Z,100392.16
2023-04-28T12:39:39.813Z,100397.56
2023-04-28T12:42:07.970Z,100407.84
2023-04-28T12:44:35.935Z,100386.75
2023-04-28T12:47:04.029Z,100384.22
2023-04-28T12:49:31.273Z,100394.84
2023-04-28T12:52:00.330Z,100394.84
2023-04-28T12:54:27.662Z,100380.00
2023-04-28T12:56:54.884Z,100365.13
2023-04-28T12:59:22.566Z,100364.28
2023-04-28T13:01:50.401Z,100359.06
2023-04-28T13:04:18.579Z,100358.72
2023-04-28T13:06:46.466Z,100348.41
2023-04-28T13:09:15.261Z,100353.63
2023-04-28T13:11:42.756Z,100342.81
2023-04-28T13:14:10.023Z,100354.59
2023-04-28T13:16:37.333Z,100348.84
2023-04-28T13:19:09.463Z,100357.72
2023-04-28T13:21:39.331Z,100337.31
2023-04-28T13:24:06.777Z,100344.56
2023-04-28T13:26:34.224Z,100336.31
2023-04-28T13:29:02.444Z,100341.00
2023-04-28T13:31:32.430Z,100318.16
2023-04-28T13:34:02.043Z,100313.09
2023-04-28T13:36:29.822Z,100303.16
2023-04-28T13:38:57.022Z,100283.75
2023-04-28T13:41:24.364Z,100291.13
2023-04-28T13:43:51.449Z,100282.91
2023-04-28T13:46:18.670Z,100289.81
2023-04-28T13:48:46.146Z,100288.28
2023-04-28T13:51:13.420Z,100292.19
2023-04-28T13:53:40.524Z,100279.59
2023-04-28T13:56:08.391Z,100272.00
2023-04-28T13:58:35.480Z,100273.53
2023-04-28T14:01:04.429Z,100276.22
2023-04-28T14:03:31.743Z,100282.94
2023-04-28T14:05:59.121Z,100295.09
2023-04-28T14:08:27.875Z,100292.00
2023-04-28T14:10:55.225Z,100268.81
2023-04-28T14:13:22.407Z,100286.66
2023-04-28T14:15:58.515Z,100311.53
2023-04-28T14:18:26.104Z,100301.28
2023-04-28T14:20:54.620Z,100305.84
2023-04-28T14:23:24.858Z,100298.22
2023-04-28T14:25:56.164Z,100285.59
2023-04-28T14:28:23.666Z,100280.56
2023-04-28T14:30:51.041Z,100278.22
2023-04-28T14:33:18.228Z,100277.19
2023-04-28T14:35:45.494Z,100262.22
2023-04-28T14:38:14.830Z,100267.28
2023-04-28T14:40:43.139Z,100262.19
2023-04-28T14:43:10.348Z,100265.25
2023-04-28T14:45:38.277Z,100282.09
2023-04-28T14:48:07.131Z,100302.47
2023-04-28T14:50:34.373Z,100312.44
2023-04-28T14:53:05.651Z,100300.66
2023-04-28T14:55:33.397Z,100307.88
2023-04-28T14:58:00.502Z,100309.56
2023-04-28T15:00:27.584Z,100302.31
2023-04-28T15:02:54.820Z,100287.81
2023-04-28T15:05:22.087Z,100289.13
2023-04-28T15:07:49.157Z,100308.34
2023-04-28T15:10:16.551Z,100305.13
2023-04-28T15:12:44.317Z,100291.44
2023-04-28T15:15:11.906Z,100279.44
2023-04-28T15:17:39.203Z,100295.75
2023-04-28T15:20:07.318Z,100303.34
2023-04-28T15:22:35.901Z,100312.94
2023-04-28T15:25:03.070Z,100311.63
2023-04-28T15:27:30.243Z,100319.72
2023-04-28T15:29:57.403Z,100318.00
2023-04-28T15:32:24.781Z,100330.63
2023-04-28T15:34:52.264Z,100353.56
2023-04-28T15:37:37.453Z,100353.22
2023-04-28T15:40:09.088Z,100326.53
2023-04-28T15:42:37.561Z,100340.38
2023-04-28T15:45:05.395Z,100337.47
2023-04-28T15:47:33.215Z,100349.50
2023-04-28T15:50:00.543Z,100351.53
2023-04-28T15:52:27.842Z,100342.75
2023-04-28T15:54:55.517Z,100353.25
2023-04-28T15:57:22.958Z,100335.09
2023-04-28T15:59:51.710Z,100355.50
2023-04-28T16:02:19.104Z,100349.56
2023-04-28T16:04:46.994Z,100354.81
2023-04-28T16:07:14.249Z,100349.72
2023-04-28T16:09:41.352Z,100360.53
2023-04-28T16:12:08.545Z,100368.19
2023-04-28T16:14:37.504Z,100364.81
2023-04-28T16:17:04.936Z,100369.53
2023-04-28T16:19:32.137Z,100369.91
2023-04-28T16:21:59.429Z,100381.06
2023-04-28T16:24:27.052Z,100388.19
2023-04-28T16:26:54.093Z,100403.53
2023-04-28T16:29:22.280Z,100385.31
2023-04-28T16:31:49.434Z,100354.13
2023-04-28T16:34:17.139Z,100361.59
2023-04-28T16:36:44.305Z,100368.84
2023-04-28T16:39:11.436Z,100340.63
2023-04-28T16:41:38.621Z,100368.47
2023-04-28T16:44:05.766Z,100388.88
2023-04-28T16:46:32.980Z,100383.13
2023-04-28T16:49:00.404Z,100385.50
2023-04-28T16:51:28.378Z,100388.22
2023-04-28T16:53:55.423Z,100384.19
2023-04-28T16:56:22.497Z,100389.59
2023-04-28T16:58:49.579Z,100391.28
2023-04-28T17:01:16.675Z,100396.84
2023-04-28T17:03:44.630Z,100380.00
2023-04-28T17:06:12.193Z,100399.91
2023-04-28T17:08:40.207Z,100374.78
2023-04-28T17:11:07.432Z,100344.56
2023-04-28T17:13:35.466Z,100348.16
2023-04-28T17:16:03.152Z,100387.31
2023-04-28T17:18:31.164Z,100399.81
2023-04-28T17:20:58.272Z,100399.31
2023-04-28T17:23:27.718Z,100412.31
2023-04-28T17:25:54.844Z,100384.69
2023-04-28T17:28:25.220Z,100382.66
2023-04-28T17:30:55.890Z,100369.00
2023-04-28T17:33:23.072Z,100360.28
2023-04-28T17:35:50.153Z,100367.22
2023-04-28T17:38:17.378Z,100364.16
2023-04-28T17:40:48.510Z,100369.56
2023-04-28T17:43:20.447Z,100367.88
2023-04-28T17:45:47.652Z,100351.69
2023-04-28T17:48:14.844Z,100348.00
2023-04-28T17:50:42.122Z,100337.03
2023-04-28T17:53:09.293Z,100278.53
2023-04-28T17:55:36.439Z,100347.16
2023-04-28T17:58:03.510Z,100360.81
2023-04-28T18:00:31.291Z,100350.69
2023-04-28T18:02:58.706Z,100367.56
2023-04-28T18:05:26.412Z,100357.78
2023-04-28T18:07:53.700Z,100342.97
2023-04-28T18:10:20.857Z,100260.09
2023-04-28T18:12:47.957Z,100275.41
2023-04-28T18:15:15.100Z,100320.53
2023-04-28T18:17:42.172Z,100323.75
2023-04-28T18:20:09.600Z,100324.75
2023-04-28T18:22:37.692Z,100339.94
2023-04-28T18:25:04.957Z,100313.63
2023-04-28T18:27:32.016Z,100317.34
2023-04-28T18:29:59.499Z,100320.22
2023-04-28T18:32:26.600Z,100331.31
2023-04-28T18:34:53.687Z,100321.38
2023-04-28T18:37:20.987Z,100295.44
2023-04-28T18:39:48.197Z,100302.19
2023-04-28T18:42:15.398Z,100289.03
2023-04-28T18:44:42.594Z,100294.78
2023-04-28T18:47:09.744Z,100298.50
2023-04-28T18:49:38.084Z,100300.19
2023-04-28T18:52:05.229Z,100301.69
2023-04-28T18:54:32.935Z,100311.63
2023-04-28T18:57:00.031Z,100322.06
2023-04-28T18:59:27.175Z,100316.00
2023-04-28T19:01:54.365Z,100319.88
2023-04-28T19:04:22.415Z,100325.09
2023-04-28T19:06:49.671Z,100337.88
2023-04-28T19:09:17.105Z,100329.47
2023-04-28T19:11:44.228Z,100319.34
2023-04-28T19:14:11.339Z,100309.25
2023-04-28T19:16:38.662Z,100306.22
2023-04-28T19:19:08.256Z,100303.69
2023-04-28T19:21:43.545Z,100305.03
2023-04-28T19:24:10.851Z,100307.91
2023-04-28T19:26:38.232Z,100300.16
2023-04-28T19:29:05.594Z,100298.81
2023-04-28T19:31:32.851Z,100298.13
2023-04-28T19:33:59.943Z,100288.34
2023-04-28T19:36:28.240Z,100290.88
2023-04-28T19:38:55.305Z,100284.66
2023-04-28T19:41:22.421Z,100289.03
2023-04-28T19:43:49.500Z,100276.94
2023-04-28T19:46:17.028Z,100273.56
2023-04-28T19:48:46.541Z,100256.03
2023-04-28T19:51:14.761Z,100248.31
2023-04-28T19:53:42.271Z,100239.22
2023-04-28T19:56:10.215Z,100222.88
2023-04-28T19:58:37.663Z,100232.97
2023-04-28T20:01:07.725Z,100219.97
2023-04-28T20:03:36.142Z,100227.53
2023-04-28T20:06:03.920Z,100228.38
2023-04-28T20:08:31.072Z,100223.81
2023-04-28T20:10:58.184Z,100227.69
2023-04-28T20:13:27.254Z,100226.31
2023-04-28T20:15:55.762Z,100213.19
2023-04-28T20:18:22.935Z,100221.06
2023-04-28T20:20:52.473Z,100232.03
2023-04-28T20:23:19.623Z,100230.75
2023-04-28T20:25:47.141Z,100239.69
2023-04-28T20:28:14.366Z,100235.88
2023-04-28T20:30:44.485Z,100240.09
2023-04-28T20:33:11.941Z,100224.88
2023-04-28T20:35:39.069Z,100224.53
2023-04-28T20:38:06.119Z,100230.56
2023-04-28T20:40:33.569Z,100235.28
2023-04-28T20:43:02.188Z,100227.84
2023-04-28T20:45:32.184Z,100221.81
2023-04-28T20:47:59.333Z,100217.44
2023-04-28T20:50:28.303Z,100219.44
2023-04-28T20:52:55.486Z,100208.00
2023-04-28T20:55:23.075Z,100210.38
2023-04-28T20:57:50.300Z,100205.31
2023-04-28T21:00:17.651Z,100199.63
2023-04-28T21:02:45.429Z,100194.25
2023-04-28T21:05:12.808Z,100176.78
2023-04-28T21:07:39.881Z,100193.56
2023-04-28T21:10:07.291Z,100190.38
2023-04-28T21:12:34.342Z,100192.38
2023-04-28T21:15:01.697Z,100187.00
2023-04-28T21:17:28.915Z,100184.84
2023-04-28T21:19:57.375Z,100189.53
2023-04-28T21:22:24.985Z,100186.50
2023-04-28T21:24:54.439Z,100177.88
2023-04-28T21:27:21.846Z,100181.56
2023-04-28T21:29:49.108Z,100181.72
2023-04-28T21:32:16.419Z,100184.25
2023-04-28T21:34:47.061Z,100184.94
2023-04-28T21:37:14.531Z,100182.56
2023-04-28T21:39:41.572Z,100190.78
2023-04-28T21:42:08.746Z,100192.97
2023-04-28T21:44:35.851Z,100191.97
2023-04-28T21:47:03.004Z,100195.00
2023-04-28T21:49:30.072Z,100185.94
2023-04-28T21:51:57.309Z,100174.00
2023-04-28T21:54:24.372Z,100185.06
2023-04-28T21:56:51.553Z,100185.75
2023-04-28T21:59:18.653Z,100178.69
2023-04-28T22:01:46.024Z,100174.28
2023-04-28T22:04:13.574Z,100176.81
2023-04-28T22:06:40.806Z,100179.66
2023-04-28T22:09:08.203Z,100176.63
2023-04-28T22:11:35.333Z,100176.25
2023-04-28T22:14:02.509Z,100194.72
2023-04-28T22:16:29.807Z,100201.47
2023-04-28T22:18:57.601Z,100200.16
2023-04-28T22:21:24.855Z,100194.78
2023-04-28T22:23:52.037Z,100192.25
2023-04-28T22:26:28.544Z,100171.03
2023-04-28T22:28:55.638Z,100190.84
2023-04-28T22:31:22.849Z,100193.38
2023-04-28T22:33:50.005Z,100189.16
2023-04-28T22:36:17.087Z,100194.69
2023-04-28T22:38:44.248Z,100198.34
2023-04-28T22:41:11.669Z,100194.31
2023-04-28T22:43:38.781Z,100197.50
2023-04-28T22:46:06.083Z,100187.06
2023-04-28T22:48:33.452Z,100185.22
2023-04-28T22:51:00.875Z,100195.81
2023-04-28T22:53:27.986Z,100193.56
2023-04-28T22:55:56.853Z,100198.34
2023-04-28T22:58:23.955Z,100202.31
2023-04-28T23:00:51.072Z,100193.13
2023-04-28T23:03:18.421Z,100189.59
2023-04-28T23:05:46.433Z,100191.59
2023-04-28T23:08:13.491Z,100199.19
2023-04-28T23:10:40.658Z,100209.09
2023-04-28T23:13:07.714Z,100221.09
2023-04-28T23:15:34.913Z,100218.25
2023-04-28T23:18:02.132Z,100224.28
2023-04-28T23:20:29.217Z,100225.97
2023-04-28T23:22:58.320Z,100235.41
2023-04-28T23:25:25.940Z,100230.84
2023-04-28T23:27:53.305Z,100236.47
2023-04-28T23:30:20.401Z,100239.81
2023-04-28T23:32:47.597Z,100234.44
2023-04-28T23:35:14.775Z,100233.59
2023-04-28T23:37:42.093Z,100222.69
2023-04-28T23:40:09.519Z,100217.16
2023-04-28T23:42:37.263Z,100214.31
2023-04-28T23:45:04.792Z,100204.06
2023-04-28T23:47:32.028Z,100195.00
2023-04-28T23:49:59.231Z,100194.84
2023-04-28T23:52:26.353Z,100190.31
2023-04-28T23:54:53.415Z,100182.25
2023-04-28T23:57:20.520Z,100172.34
2023-04-28T23:59:48.057Z,100170.34
